sensor_id;sensor_type;location;lat;lon;timestamp;pressure;altitude;pressure_sealevel;temperature;humidity
85189;BME280;75559;49.132;8.922;2024-02-28T00:00:04;99373.56;;;3.06;96.58
85189;BME280;75559;49.132;8.922;2024-02-28T00:02:29;99377.97;;;3.06;96.97
85189;BME280;75559;49.132;8.922;2024-02-28T00:04:55;99364.84;;;3.00;97.03
85189;BME280;75559;49.132;8.922;2024-02-28T00:07:20;99374.50;;;2.93;97.16
85189;BME280;75559;49.132;8.922;2024-02-28T00:09:46;99371.88;;;2.98;97.09
85189;BME280;75559;49.132;8.922;2024-02-28T00:12:11;99375.34;;;3.01;96.62
85189;BME280;75559;49.132;8.922;2024-02-28T00:14:37;99370.13;;;2.92;97.36
85189;BME280;75559;49.132;8.922;2024-02-28T00:17:02;99374.47;;;3.01;97.25
85189;BME280;75559;49.132;8.922;2024-02-28T00:19:28;99350.00;;;2.83;97.29
85189;BME280;75559;49.132;8.922;2024-02-28T00:21:53;99386.78;;;2.94;97.50
85189;BME280;75559;49.132;8.922;2024-02-28T00:24:19;99385.91;;;2.84;98.13
85189;BME280;75559;49.132;8.922;2024-02-28T00:26:45;99388.59;;;2.69;96.94
85189;BME280;75559;49.132;8.922;2024-02-28T00:29:10;99388.59;;;2.59;97.72
85189;BME280;75559;49.132;8.922;2024-02-28T00:31:35;99391.22;;;2.62;97.97
85189;BME280;75559;49.132;8.922;2024-02-28T00:34:01;99398.25;;;2.57;97.71
85189;BME280;75559;49.132;8.922;2024-02-28T00:36:26;99396.47;;;2.66;98.50
85189;BME280;75559;49.132;8.922;2024-02-28T00:38:52;99398.25;;;2.52;98.13
85189;BME280;75559;49.132;8.922;2024-02-28T00:41:17;99402.63;;;2.53;98.26
85189;BME280;75559;49.132;8.922;2024-02-28T00:43:42;99391.25;;;2.48;97.82
85189;BME280;75559;49.132;8.922;2024-02-28T00:46:08;99400.03;;;2.42;97.63
85189;BME280;75559;49.132;8.922;2024-02-28T00:48:42;99400.88;;;2.29;98.26
85189;BME280;75559;49.132;8.922;2024-02-28T00:51:07;99397.41;;;2.24;98.04
85189;BME280;75559;49.132;8.922;2024-02-28T00:53:33;99411.41;;;2.20;98.13
85189;BME280;75559;49.132;8.922;2024-02-28T00:55:59;99407.03;;;2.25;98.53
85189;BME280;75559;49.132;8.922;2024-02-28T00:58:24;99408.75;;;2.29;98.89
85189;BME280;75559;49.132;8.922;2024-02-28T01:00:51;99407.91;;;2.33;99.53
85189;BME280;75559;49.132;8.922;2024-02-28T01:03:16;99412.28;;;2.49;98.65
85189;BME280;75559;49.132;8.922;2024-02-28T01:05:43;99407.00;;;2.51;98.34
85189;BME280;75559;49.132;8.922;2024-02-28T01:08:09;99412.25;;;2.62;98.47
85189;BME280;75559;49.132;8.922;2024-02-28T01:10:34;99417.47;;;2.74;97.98
85189;BME280;75559;49.132;8.922;2024-02-28T01:13:00;99419.22;;;2.75;97.82
85189;BME280;75559;49.132;8.922;2024-02-28T01:15:25;99416.59;;;2.72;98.00
85189;BME280;75559;49.132;8.922;2024-02-28T01:17:51;99416.59;;;2.72;97.98
85189;BME280;75559;49.132;8.922;2024-02-28T01:20:16;99420.09;;;2.74;97.93
85189;BME280;75559;49.132;8.922;2024-02-28T01:22:42;99411.34;;;2.73;97.57
85189;BME280;75559;49.132;8.922;2024-02-28T01:25:08;99412.22;;;2.69;97.47
85189;BME280;75559;49.132;8.922;2024-02-28T01:27:33;99413.09;;;2.67;97.56
85189;BME280;75559;49.132;8.922;2024-02-28T01:30:00;99412.25;;;2.62;97.81
85189;BME280;75559;49.132;8.922;2024-02-28T01:32:25;99413.97;;;2.70;97.82
85189;BME280;75559;49.132;8.922;2024-02-28T01:34:51;99387.75;;;2.55;98.28
85189;BME280;75559;49.132;8.922;2024-02-28T01:37:16;99409.63;;;2.63;98.12
85189;BME280;75559;49.132;8.922;2024-02-28T01:39:41;99405.25;;;2.58;98.35
85189;BME280;75559;49.132;8.922;2024-02-28T01:42:07;99414.03;;;2.40;97.83
85189;BME280;75559;49.132;8.922;2024-02-28T01:44:39;99415.78;;;2.27;97.76
85189;BME280;75559;49.132;8.922;2024-02-28T01:47:06;99405.28;;;2.22;98.35
85189;BME280;75559;49.132;8.922;2024-02-28T01:49:32;99404.41;;;2.17;98.33
85189;BME280;75559;49.132;8.922;2024-02-28T01:51:57;99414.00;;;2.29;99.12
85189;BME280;75559;49.132;8.922;2024-02-28T01:54:23;99401.78;;;2.25;99.02
85189;BME280;75559;49.132;8.922;2024-02-28T01:56:49;99381.66;;;2.06;99.27
85189;BME280;75559;49.132;8.922;2024-02-28T01:59:15;99395.66;;;2.15;98.92
85189;BME280;75559;49.132;8.922;2024-02-28T02:01:42;99400.03;;;2.12;99.30
85189;BME280;75559;49.132;8.922;2024-02-28T02:04:07;99401.78;;;1.96;99.03
85189;BME280;75559;49.132;8.922;2024-02-28T02:06:34;99407.03;;;1.88;98.83
85189;BME280;75559;49.132;8.922;2024-02-28T02:09:02;99419.28;;;1.91;98.87
85189;BME280;75559;49.132;8.922;2024-02-28T02:11:28;99427.16;;;1.82;99.39
85189;BME280;75559;49.132;8.922;2024-02-28T02:13:54;99421.03;;;1.78;98.91
85189;BME280;75559;49.132;8.922;2024-02-28T02:16:19;99422.72;;;1.73;99.09
85189;BME280;75559;49.132;8.922;2024-02-28T02:18:47;99433.22;;;1.67;99.36
85189;BME280;75559;49.132;8.922;2024-02-28T02:21:15;99425.34;;;1.70;99.55
85189;BME280;75559;49.132;8.922;2024-02-28T02:23:42;99440.22;;;1.73;99.83
85189;BME280;75559;49.132;8.922;2024-02-28T02:26:08;99411.34;;;1.56;99.63
85189;BME280;75559;49.132;8.922;2024-02-28T02:28:33;99420.06;;;1.46;99.49
85189;BME280;75559;49.132;8.922;2024-02-28T02:30:59;99448.91;;;1.53;99.22
85189;BME280;75559;49.132;8.922;2024-02-28T02:33:24;99452.41;;;1.48;99.36
85189;BME280;75559;49.132;8.922;2024-02-28T02:35:51;99453.28;;;1.47;99.42
85189;BME280;75559;49.132;8.922;2024-02-28T02:38:16;99468.16;;;1.62;99.78
85189;BME280;75559;49.132;8.922;2024-02-28T02:40:41;99464.72;;;1.75;100.00
85189;BME280;75559;49.132;8.922;2024-02-28T02:43:07;99468.22;;;1.77;99.38
85189;BME280;75559;49.132;8.922;2024-02-28T02:45:32;99466.44;;;1.73;99.73
85189;BME280;75559;49.132;8.922;2024-02-28T02:47:58;99462.06;;;1.66;99.49
85189;BME280;75559;49.132;8.922;2024-02-28T02:50:23;99478.69;;;1.71;99.14
85189;BME280;75559;49.132;8.922;2024-02-28T02:52:48;99483.09;;;1.75;99.14
85189;BME280;75559;49.132;8.922;2024-02-28T02:55:14;99485.75;;;1.95;99.84
85189;BME280;75559;49.132;8.922;2024-02-28T02:57:40;99449.81;;;1.71;99.41
85189;BME280;75559;49.132;8.922;2024-02-28T03:00:08;99491.91;;;2.19;99.88
85189;BME280;75559;49.132;8.922;2024-02-28T03:02:34;99502.41;;;2.29;99.62
85189;BME280;75559;49.132;8.922;2024-02-28T03:04:59;99501.56;;;2.37;99.88
85189;BME280;75559;49.132;8.922;2024-02-28T03:07:25;99509.44;;;2.60;99.59
85189;BME280;75559;49.132;8.922;2024-02-28T03:09:50;99489.28;;;2.61;99.57
85189;BME280;75559;49.132;8.922;2024-02-28T03:12:15;99506.78;;;2.89;99.54
85189;BME280;75559;49.132;8.922;2024-02-28T03:14:42;99510.28;;;3.02;99.20
85189;BME280;75559;49.132;8.922;2024-02-28T03:17:07;99518.13;;;3.12;99.05
85189;BME280;75559;49.132;8.922;2024-02-28T03:19:32;99520.72;;;3.23;99.17
85189;BME280;75559;49.132;8.922;2024-02-28T03:21:59;99510.19;;;3.28;99.26
85189;BME280;75559;49.132;8.922;2024-02-28T03:24:24;99490.06;;;3.19;98.58
85189;BME280;75559;49.132;8.922;2024-02-28T03:26:49;99505.78;;;3.33;98.97
85189;BME280;75559;49.132;8.922;2024-02-28T03:29:15;99504.91;;;3.37;98.63
85189;BME280;75559;49.132;8.922;2024-02-28T03:31:40;99505.75;;;3.43;98.67
85189;BME280;75559;49.132;8.922;2024-02-28T03:34:06;99510.16;;;3.49;98.75
85189;BME280;75559;49.132;8.922;2024-02-28T03:36:31;99512.75;;;3.55;98.21
85189;BME280;75559;49.132;8.922;2024-02-28T03:38:56;99511.88;;;3.55;98.56
85189;BME280;75559;49.132;8.922;2024-02-28T03:41:22;99496.97;;;3.46;98.82
85189;BME280;75559;49.132;8.922;2024-02-28T03:43:47;99511.00;;;3.57;99.24
85189;BME280;75559;49.132;8.922;2024-02-28T03:46:13;99510.13;;;3.57;98.99
85189;BME280;75559;49.132;8.922;2024-02-28T03:48:38;99524.09;;;3.68;98.30
85189;BME280;75559;49.132;8.922;2024-02-28T03:51:03;99524.09;;;3.69;98.73
85189;BME280;75559;49.132;8.922;2024-02-28T03:53:29;99524.94;;;3.71;98.57
85189;BME280;75559;49.132;8.922;2024-02-28T03:55:55;99525.84;;;3.69;98.23
85189;BME280;75559;49.132;8.922;2024-02-28T03:58:20;99518.88;;;3.60;98.34
85189;BME280;75559;49.132;8.922;2024-02-28T04:00:45;99536.41;;;3.58;98.14
85189;BME280;75559;49.132;8.922;2024-02-28T04:03:11;99542.56;;;3.45;98.12
85189;BME280;75559;49.132;8.922;2024-02-28T04:05:36;99544.31;;;3.46;98.36
85189;BME280;75559;49.132;8.922;2024-02-28T04:08:02;99550.47;;;3.48;98.49
85189;BME280;75559;49.132;8.922;2024-02-28T04:10:27;99551.34;;;3.56;98.80
85189;BME280;75559;49.132;8.922;2024-02-28T04:12:53;99547.81;;;3.56;99.23
85189;BME280;75559;49.132;8.922;2024-02-28T04:15:18;99554.81;;;3.61;98.22
85189;BME280;75559;49.132;8.922;2024-02-28T04:17:43;99538.19;;;3.53;98.55
85189;BME280;75559;49.132;8.922;2024-02-28T04:20:13;99539.91;;;3.59;98.16
85189;BME280;75559;49.132;8.922;2024-02-28T04:22:38;99556.53;;;3.68;98.33
85189;BME280;75559;49.132;8.922;2024-02-28T04:25:08;99554.81;;;3.64;97.42
85189;BME280;75559;49.132;8.922;2024-02-28T04:27:35;99561.84;;;3.62;97.53
85189;BME280;75559;49.132;8.922;2024-02-28T04:30:00;99565.34;;;3.63;98.01
85189;BME280;75559;49.132;8.922;2024-02-28T04:32:26;99574.09;;;3.66;98.34
85189;BME280;75559;49.132;8.922;2024-02-28T04:34:51;99569.69;;;3.71;98.11
85189;BME280;75559;49.132;8.922;2024-02-28T04:37:17;99563.50;;;3.78;97.70
85189;BME280;75559;49.132;8.922;2024-02-28T04:39:42;99566.13;;;3.81;97.64
85189;BME280;75559;49.132;8.922;2024-02-28T04:42:07;99559.13;;;3.79;97.79
85189;BME280;75559;49.132;8.922;2024-02-28T04:44:33;99572.22;;;3.93;97.65
85189;BME280;75559;49.132;8.922;2024-02-28T04:46:58;99584.50;;;3.95;97.88
85189;BME280;75559;49.132;8.922;2024-02-28T04:49:23;99581.84;;;4.00;97.08
85189;BME280;75559;49.132;8.922;2024-02-28T04:51:49;99573.09;;;3.96;97.39
85189;BME280;75559;49.132;8.922;2024-02-28T04:54:14;99594.97;;;4.13;96.28
85189;BME280;75559;49.132;8.922;2024-02-28T04:56:40;99592.31;;;4.15;97.50
85189;BME280;75559;49.132;8.922;2024-02-28T04:59:06;99599.34;;;4.18;96.95
85189;BME280;75559;49.132;8.922;2024-02-28T05:01:31;99600.22;;;4.17;97.44
85189;BME280;75559;49.132;8.922;2024-02-28T05:03:57;99595.78;;;4.22;96.52
85189;BME280;75559;49.132;8.922;2024-02-28T05:06:22;99601.97;;;4.19;96.53
85189;BME280;75559;49.132;8.922;2024-02-28T05:08:47;99604.59;;;4.19;97.11
85189;BME280;75559;49.132;8.922;2024-02-28T05:11:13;99601.06;;;4.20;96.74
85189;BME280;75559;49.132;8.922;2024-02-28T05:13:38;99617.72;;;4.24;96.83
85189;BME280;75559;49.132;8.922;2024-02-28T05:16:03;99599.31;;;4.19;97.01
85189;BME280;75559;49.132;8.922;2024-02-28T05:18:29;99594.97;;;4.13;96.82
85189;BME280;75559;49.132;8.922;2024-02-28T05:20:54;99617.69;;;4.30;96.59
85189;BME280;75559;49.132;8.922;2024-02-28T05:23:20;99615.06;;;4.30;96.84
85189;BME280;75559;49.132;8.922;2024-02-28T05:25:46;99607.19;;;4.25;96.43
85189;BME280;75559;49.132;8.922;2024-02-28T05:28:11;99602.81;;;4.23;96.52
85189;BME280;75559;49.132;8.922;2024-02-28T05:30:37;99594.94;;;4.18;96.34
85189;BME280;75559;49.132;8.922;2024-02-28T05:33:02;99605.44;;;4.24;95.49
85189;BME280;75559;49.132;8.922;2024-02-28T05:35:28;99614.16;;;4.35;95.88
85189;BME280;75559;49.132;8.922;2024-02-28T05:37:53;99622.91;;;4.37;96.15
85189;BME280;75559;49.132;8.922;2024-02-28T05:40:22;99623.78;;;4.41;95.95
85189;BME280;75559;49.132;8.922;2024-02-28T05:42:47;99611.47;;;4.43;95.56
85189;BME280;75559;49.132;8.922;2024-02-28T05:45:13;99616.75;;;4.41;95.87
85189;BME280;75559;49.132;8.922;2024-02-28T05:47:38;99612.34;;;4.45;95.49
85189;BME280;75559;49.132;8.922;2024-02-28T05:50:04;99611.47;;;4.43;95.85
85189;BME280;75559;49.132;8.922;2024-02-28T05:52:30;99619.41;;;4.38;95.09
85189;BME280;75559;49.132;8.922;2024-02-28T05:54:55;99619.41;;;4.35;96.21
85189;BME280;75559;49.132;8.922;2024-02-28T05:57:21;99608.91;;;4.32;96.05
85189;BME280;75559;49.132;8.922;2024-02-28T05:59:46;99628.19;;;4.36;95.51
85189;BME280;75559;49.132;8.922;2024-02-28T06:02:11;99622.97;;;4.31;95.03
85189;BME280;75559;49.132;8.922;2024-02-28T06:04:38;99624.72;;;4.28;94.61
85189;BME280;75559;49.132;8.922;2024-02-28T06:07:03;99630.91;;;4.24;95.00
85189;BME280;75559;49.132;8.922;2024-02-28T06:09:28;99636.16;;;4.24;96.08
85189;BME280;75559;49.132;8.922;2024-02-28T06:11:54;99635.28;;;4.26;95.70
85189;BME280;75559;49.132;8.922;2024-02-28T06:14:20;99639.66;;;4.27;95.68
85189;BME280;75559;49.132;8.922;2024-02-28T06:16:48;99640.56;;;4.23;95.75
85189;BME280;75559;49.132;8.922;2024-02-28T06:19:13;99642.34;;;4.20;95.86
85189;BME280;75559;49.132;8.922;2024-02-28T06:21:39;99636.22;;;4.13;96.10
85189;BME280;75559;49.132;8.922;2024-02-28T06:24:04;99644.09;;;4.18;95.85
85189;BME280;75559;49.132;8.922;2024-02-28T06:26:30;99649.38;;;4.15;95.96
85189;BME280;75559;49.132;8.922;2024-02-28T06:28:57;99645.03;;;4.06;95.66
85189;BME280;75559;49.132;8.922;2024-02-28T06:31:27;99654.69;;;4.08;96.23
85189;BME280;75559;49.132;8.922;2024-02-28T06:33:55;99638.88;;;4.04;96.15
85189;BME280;75559;49.132;8.922;2024-02-28T06:36:20;99642.38;;;4.09;96.38
85189;BME280;75559;49.132;8.922;2024-02-28T06:38:45;99673.91;;;4.29;95.86
85189;BME280;75559;49.132;8.922;2024-02-28T06:41:11;99673.88;;;4.33;95.39
85189;BME280;75559;49.132;8.922;2024-02-28T06:43:36;99656.31;;;4.34;95.15
85189;BME280;75559;49.132;8.922;2024-02-28T06:46:02;99668.59;;;4.36;95.18
85189;BME280;75559;49.132;8.922;2024-02-28T06:48:28;99664.16;;;4.41;94.95
85189;BME280;75559;49.132;8.922;2024-02-28T06:50:54;99668.56;;;4.44;93.97
85189;BME280;75559;49.132;8.922;2024-02-28T06:53:19;99679.06;;;4.50;94.08
85189;BME280;75559;49.132;8.922;2024-02-28T06:55:45;99677.25;;;4.57;94.19
85189;BME280;75559;49.132;8.922;2024-02-28T06:58:13;99689.53;;;4.61;94.32
85189;BME280;75559;49.132;8.922;2024-02-28T07:00:39;99690.41;;;4.69;93.21
85189;BME280;75559;49.132;8.922;2024-02-28T07:03:04;99690.38;;;4.72;93.74
85189;BME280;75559;49.132;8.922;2024-02-28T07:05:29;99689.47;;;4.76;92.92
85189;BME280;75559;49.132;8.922;2024-02-28T07:07:58;99699.94;;;4.88;93.79
85189;BME280;75559;49.132;8.922;2024-02-28T07:10:24;99695.50;;;4.93;92.97
85189;BME280;75559;49.132;8.922;2024-02-28T07:12:49;99706.00;;;4.99;93.35
85189;BME280;75559;49.132;8.922;2024-02-28T07:15:14;99705.13;;;5.02;92.11
85189;BME280;75559;49.132;8.922;2024-02-28T07:17:40;99715.59;;;5.11;91.91
85189;BME280;75559;49.132;8.922;2024-02-28T07:20:06;99721.72;;;5.18;92.36
85189;BME280;75559;49.132;8.922;2024-02-28T07:22:32;99719.09;;;5.13;91.15
85189;BME280;75559;49.132;8.922;2024-02-28T07:24:57;99726.09;;;5.19;90.89
85189;BME280;75559;49.132;8.922;2024-02-28T07:27:23;99705.94;;;5.12;91.18
85189;BME280;75559;49.132;8.922;2024-02-28T07:29:49;99728.72;;;5.23;90.37
85189;BME280;75559;49.132;8.922;2024-02-28T07:32:14;99732.19;;;5.30;90.49
85189;BME280;75559;49.132;8.922;2024-02-28T07:34:40;99706.72;;;5.27;90.16
85189;BME280;75559;49.132;8.922;2024-02-28T07:37:05;99731.22;;;5.42;90.36
85189;BME280;75559;49.132;8.922;2024-02-28T07:39:30;99732.94;;;5.47;90.07
85189;BME280;75559;49.132;8.922;2024-02-28T07:41:56;99708.47;;;5.27;89.77
85189;BME280;75559;49.132;8.922;2024-02-28T07:44:21;99742.63;;;5.44;90.30
85189;BME280;75559;49.132;8.922;2024-02-28T07:46:49;99753.19;;;5.45;89.15
85189;BME280;75559;49.132;8.922;2024-02-28T07:49:18;99753.16;;;5.48;90.09
85189;BME280;75559;49.132;8.922;2024-02-28T07:51:43;99754.03;;;5.49;89.73
85189;BME280;75559;49.132;8.922;2024-02-28T07:54:09;99733.06;;;5.32;89.28
85189;BME280;75559;49.132;8.922;2024-02-28T07:56:34;99733.94;;;5.31;89.63
85189;BME280;75559;49.132;8.922;2024-02-28T07:59:00;99762.84;;;5.49;90.06
85189;BME280;75559;49.132;8.922;2024-02-28T08:01:25;99759.22;;;5.59;89.24
85189;BME280;75559;49.132;8.922;2024-02-28T08:03:50;99746.06;;;5.53;88.98
85189;BME280;75559;49.132;8.922;2024-02-28T08:06:16;99763.59;;;5.63;89.56
85189;BME280;75559;49.132;8.922;2024-02-28T08:08:44;99764.44;;;5.68;88.69
85189;BME280;75559;49.132;8.922;2024-02-28T08:11:10;99759.97;;;5.78;87.88
85189;BME280;75559;49.132;8.922;2024-02-28T08:13:36;99767.88;;;5.80;88.50
85189;BME280;75559;49.132;8.922;2024-02-28T08:16:01;99762.53;;;5.90;87.52
85189;BME280;75559;49.132;8.922;2024-02-28T08:18:27;99752.00;;;5.83;87.27
85189;BME280;75559;49.132;8.922;2024-02-28T08:20:53;99716.06;;;5.63;87.35
85189;BME280;75559;49.132;8.922;2024-02-28T08:23:22;99770.34;;;6.01;87.57
85189;BME280;75559;49.132;8.922;2024-02-28T08:25:47;99784.41;;;6.03;88.13
85189;BME280;75559;49.132;8.922;2024-02-28T08:28:13;99760.75;;;5.91;88.37
85189;BME280;75559;49.132;8.922;2024-02-28T08:30:39;99794.00;;;6.13;86.95
85189;BME280;75559;49.132;8.922;2024-02-28T08:33:06;99792.22;;;6.15;86.84
85189;BME280;75559;49.132;8.922;2024-02-28T08:35:32;99788.69;;;6.16;87.41
85189;BME280;75559;49.132;8.922;2024-02-28T08:37:57;99786.09;;;6.12;87.30
85189;BME280;75559;49.132;8.922;2024-02-28T08:40:22;99780.88;;;6.04;87.54
85189;BME280;75559;49.132;8.922;2024-02-28T08:42:48;99787.16;;;5.94;87.26
85189;BME280;75559;49.132;8.922;2024-02-28T08:45:14;99785.31;;;6.02;87.26
85189;BME280;75559;49.132;8.922;2024-02-28T08:47:41;99763.19;;;6.11;87.17
85189;BME280;75559;49.132;8.922;2024-02-28T08:50:06;99777.84;;;6.42;85.91
85189;BME280;75559;49.132;8.922;2024-02-28T08:52:32;99776.66;;;6.69;84.55
85189;BME280;75559;49.132;8.922;2024-02-28T08:54:58;99787.28;;;6.64;84.15
85189;BME280;75559;49.132;8.922;2024-02-28T08:57:23;99786.41;;;6.64;83.71
85189;BME280;75559;49.132;8.922;2024-02-28T08:59:50;99785.56;;;6.60;83.39
85189;BME280;75559;49.132;8.922;2024-02-28T09:02:15;99788.25;;;6.57;84.19
85189;BME280;75559;49.132;8.922;2024-02-28T09:04:40;99787.16;;;6.75;84.02
85189;BME280;75559;49.132;8.922;2024-02-28T09:07:06;99787.09;;;6.80;83.43
85189;BME280;75559;49.132;8.922;2024-02-28T09:09:31;99790.53;;;6.86;82.83
85189;BME280;75559;49.132;8.922;2024-02-28T09:12:00;99773.06;;;6.75;83.49
85189;BME280;75559;49.132;8.922;2024-02-28T09:14:26;99764.25;;;6.74;84.24
85189;BME280;75559;49.132;8.922;2024-02-28T09:16:51;99780.63;;;7.04;83.52
85189;BME280;75559;49.132;8.922;2024-02-28T09:19:18;99786.88;;;6.98;82.94
85189;BME280;75559;49.132;8.922;2024-02-28T09:21:44;99784.75;;;7.23;81.39
85189;BME280;75559;49.132;8.922;2024-02-28T09:24:09;99781.97;;;7.32;82.10
85189;BME280;75559;49.132;8.922;2024-02-28T09:26:38;99770.81;;;7.10;82.11
85189;BME280;75559;49.132;8.922;2024-02-28T09:29:04;99792.50;;;7.37;82.64
85189;BME280;75559;49.132;8.922;2024-02-28T09:31:29;99798.56;;;7.43;82.33
85189;BME280;75559;49.132;8.922;2024-02-28T09:33:55;99797.53;;;7.55;80.98
85189;BME280;75559;49.132;8.922;2024-02-28T09:36:23;99795.19;;;7.34;81.83
85189;BME280;75559;49.132;8.922;2024-02-28T09:38:49;99795.13;;;7.38;82.37
85189;BME280;75559;49.132;8.922;2024-02-28T09:41:15;99800.28;;;7.47;82.73
85189;BME280;75559;49.132;8.922;2024-02-28T09:43:42;99799.22;;;7.60;81.22
85189;BME280;75559;49.132;8.922;2024-02-28T09:46:08;99792.75;;;7.78;78.88
85189;BME280;75559;49.132;8.922;2024-02-28T09:48:38;99796.28;;;7.77;79.25
85189;BME280;75559;49.132;8.922;2024-02-28T09:51:05;99795.75;;;8.08;78.55
85189;BME280;75559;49.132;8.922;2024-02-28T09:53:31;99793.75;;;8.22;78.28
85189;BME280;75559;49.132;8.922;2024-02-28T09:55:56;99798.94;;;8.30;77.93
85189;BME280;75559;49.132;8.922;2024-02-28T09:58:22;99800.13;;;8.12;79.22
85189;BME280;75559;49.132;8.922;2024-02-28T10:00:48;99803.81;;;8.02;78.47
85189;BME280;75559;49.132;8.922;2024-02-28T10:03:17;99810.75;;;8.09;78.48
85189;BME280;75559;49.132;8.922;2024-02-28T10:05:44;99812.28;;;8.23;78.06
85189;BME280;75559;49.132;8.922;2024-02-28T10:08:11;99806.91;;;8.28;78.04
85189;BME280;75559;49.132;8.922;2024-02-28T10:10:37;99816.44;;;8.40;78.30
85189;BME280;75559;49.132;8.922;2024-02-28T10:13:03;99817.84;;;8.59;77.22
85189;BME280;75559;49.132;8.922;2024-02-28T10:15:29;99811.56;;;8.63;76.40
85189;BME280;75559;49.132;8.922;2024-02-28T10:17:54;99821.28;;;8.64;76.38
85189;BME280;75559;49.132;8.922;2024-02-28T10:20:19;99822.09;;;8.69;75.60
85189;BME280;75559;49.132;8.922;2024-02-28T10:22:45;99820.19;;;8.76;76.91
85189;BME280;75559;49.132;8.922;2024-02-28T10:25:10;99819.69;;;9.00;76.27
85189;BME280;75559;49.132;8.922;2024-02-28T10:27:35;99807.13;;;9.08;74.92
85189;BME280;75559;49.132;8.922;2024-02-28T10:30:02;99824.28;;;9.34;74.57
85189;BME280;75559;49.132;8.922;2024-02-28T10:32:31;99835.63;;;9.79;72.03
85189;BME280;75559;49.132;8.922;2024-02-28T10:34:59;99837.72;;;10.03;71.75
85189;BME280;75559;49.132;8.922;2024-02-28T10:37:26;99843.16;;;9.99;71.47
85189;BME280;75559;49.132;8.922;2024-02-28T10:39:54;99849.66;;;9.86;70.01
85189;BME280;75559;49.132;8.922;2024-02-28T10:42:21;99854.00;;;9.90;71.05
85189;BME280;75559;49.132;8.922;2024-02-28T10:44:50;99855.22;;;10.12;70.41
85189;BME280;75559;49.132;8.922;2024-02-28T10:47:17;99867.06;;;10.70;67.88
85189;BME280;75559;49.132;8.922;2024-02-28T10:49:43;99853.34;;;11.16;64.97
85189;BME280;75559;49.132;8.922;2024-02-28T10:52:10;99853.84;;;10.98;65.07
85189;BME280;75559;49.132;8.922;2024-02-28T10:54:39;99858.94;;;10.74;66.55
85189;BME280;75559;49.132;8.922;2024-02-28T10:57:07;99860.25;;;10.60;67.58
85189;BME280;75559;49.132;8.922;2024-02-28T10:59:35;99859.66;;;10.49;68.52
85189;BME280;75559;49.132;8.922;2024-02-28T11:02:02;99856.34;;;11.64;65.29
85189;BME280;75559;49.132;8.922;2024-02-28T11:04:28;99847.81;;;14.47;56.58
85189;BME280;75559;49.132;8.922;2024-02-28T11:06:55;99841.69;;;16.00;50.12
85189;BME280;75559;49.132;8.922;2024-02-28T11:09:22;99835.31;;;16.91;46.95
85189;BME280;75559;49.132;8.922;2024-02-28T11:11:49;99843.88;;;15.92;48.27
85189;BME280;75559;49.132;8.922;2024-02-28T11:14:15;99837.50;;;16.31;45.81
85189;BME280;75559;49.132;8.922;2024-02-28T11:16:41;99826.59;;;15.02;47.47
85189;BME280;75559;49.132;8.922;2024-02-28T11:19:21;99829.25;;;14.41;49.38
85189;BME280;75559;49.132;8.922;2024-02-28T11:21:53;99843.22;;;13.84;52.89
85189;BME280;75559;49.132;8.922;2024-02-28T11:24:29;99849.88;;;13.04;54.72
85189;BME280;75559;49.132;8.922;2024-02-28T11:26:56;99843.22;;;12.14;58.61
85189;BME280;75559;49.132;8.922;2024-02-28T11:29:25;99837.53;;;11.69;58.77
85189;BME280;75559;49.132;8.922;2024-02-28T11:31:52;99834.63;;;11.47;58.76
85189;BME280;75559;49.132;8.922;2024-02-28T11:34:20;99836.41;;;11.19;60.10
85189;BME280;75559;49.132;8.922;2024-02-28T11:36:47;99835.78;;;11.09;61.06
85189;BME280;75559;49.132;8.922;2024-02-28T11:39:13;99821.88;;;10.98;59.82
85189;BME280;75559;49.132;8.922;2024-02-28T11:41:38;99843.09;;;11.02;61.20
85189;BME280;75559;49.132;8.922;2024-02-28T11:44:05;99855.78;;;11.83;58.99
85189;BME280;75559;49.132;8.922;2024-02-28T11:46:30;99844.00;;;13.87;53.65
85189;BME280;75559;49.132;8.922;2024-02-28T11:48:55;99820.72;;;14.94;47.94
85189;BME280;75559;49.132;8.922;2024-02-28T11:51:21;99784.66;;;15.95;44.84
85189;BME280;75559;49.132;8.922;2024-02-28T11:53:46;99821.06;;;16.89;44.34
85189;BME280;75559;49.132;8.922;2024-02-28T11:56:12;99837.94;;;17.90;40.54
85189;BME280;75559;49.132;8.922;2024-02-28T11:58:52;99840.72;;;18.20;38.35
85189;BME280;75559;49.132;8.922;2024-02-28T12:01:18;99805.34;;;18.56;39.26
85189;BME280;75559;49.132;8.922;2024-02-28T12:03:46;99822.13;;;17.84;39.50
85189;BME280;75559;49.132;8.922;2024-02-28T12:06:12;99817.78;;;17.32;41.56
85189;BME280;75559;49.132;8.922;2024-02-28T12:08:37;99825.44;;;16.91;44.21
85189;BME280;75559;49.132;8.922;2024-02-28T12:11:07;99820.13;;;14.87;48.52
85189;BME280;75559;49.132;8.922;2024-02-28T12:13:33;99808.72;;;14.00;52.63
85189;BME280;75559;49.132;8.922;2024-02-28T12:16:00;99831.50;;;12.94;55.08
85189;BME280;75559;49.132;8.922;2024-02-28T12:18:26;99817.66;;;12.83;55.56
85189;BME280;75559;49.132;8.922;2024-02-28T12:20:52;99823.94;;;12.57;57.26
85189;BME280;75559;49.132;8.922;2024-02-28T12:23:18;99824.00;;;11.75;59.30
85189;BME280;75559;49.132;8.922;2024-02-28T12:25:43;99820.81;;;11.64;60.64
85189;BME280;75559;49.132;8.922;2024-02-28T12:28:08;99819.38;;;11.52;60.71
85189;BME280;75559;49.132;8.922;2024-02-28T12:30:40;99816.25;;;11.95;59.36
85189;BME280;75559;49.132;8.922;2024-02-28T12:33:07;99809.16;;;12.47;56.60
85189;BME280;75559;49.132;8.922;2024-02-28T12:35:32;99786.53;;;14.18;51.53
85189;BME280;75559;49.132;8.922;2024-02-28T12:37:58;99800.66;;;14.64;48.75
85189;BME280;75559;49.132;8.922;2024-02-28T12:40:23;99791.28;;;14.93;49.64
85189;BME280;75559;49.132;8.922;2024-02-28T12:42:50;99794.50;;;15.01;49.27
85189;BME280;75559;49.132;8.922;2024-02-28T12:45:15;99786.16;;;16.01;47.17
85189;BME280;75559;49.132;8.922;2024-02-28T12:47:41;99771.97;;;16.51;44.23
85189;BME280;75559;49.132;8.922;2024-02-28T12:50:06;99772.47;;;15.88;46.71
85189;BME280;75559;49.132;8.922;2024-02-28T12:52:33;99768.81;;;16.42;43.20
85189;BME280;75559;49.132;8.922;2024-02-28T12:54:59;99779.25;;;15.40;46.27
85189;BME280;75559;49.132;8.922;2024-02-28T12:57:24;99762.13;;;15.80;45.65
85189;BME280;75559;49.132;8.922;2024-02-28T12:59:50;99761.84;;;16.04;43.94
85189;BME280;75559;49.132;8.922;2024-02-28T13:02:15;99758.88;;;15.74;44.96